ADDS METAR Data INFO
IDs: Format: Raw Decoded Include TAF

Data at: 0607 UTC 25 Jun 2018

PAKW 250553Z AUTO 00000KT 10SM OVC007 12/11 A2989 RMK AO2 SLP120 60002 T01170111 10161 20117 53000 TSNO
PAKW 250453Z AUTO 18004KT 10SM OVC007 12/11 A2988 RMK AO2 RAE12 SLP117 P0000 T01170111 TSNO
PAKW 250401Z AUTO 18003KT 3SM -RA BR BKN008 OVC024 12/12 A2989 RMK AO2 P0000 T01170117 TSNO
PAKW 250353Z AUTO 17005KT 4SM -RA BR BKN010 BKN029 OVC043 12/12 A2989 RMK AO2 RAB18 SLP120 P0002 T01170117 TSNO
PAKW 250338Z AUTO 16004KT 2 1/2SM -RA BR FEW010 BKN014 OVC044 12/11 A2989 RMK AO2 RAB18 P0001 T01170111 TSNO
PAKW 250329Z AUTO 17005KT 2 1/2SM -RA BR SCT014 BKN029 OVC040 12/11 A2988 RMK AO2 RAB18 P0000 T01220111 TSNO
PAKW 250327Z AUTO 18005KT 3SM -RA BR BKN014 BKN029 OVC040 12/11 A2989 RMK AO2 RAB18 P0000 T01220111 TSNO
PAKW 250253Z AUTO 17006KT 10SM BKN020 OVC046 13/11 A2988 RMK AO2 RAE21 SLP118 P0000 60000 T01280111 56005 TSNO
PAKW 250153Z AUTO 20005KT 10SM -RA BKN020 OVC048 13/11 A2989 RMK AO2 RAB32 SLP120 P0000 T01330106 TSNO
PAKW 250053Z AUTO 22008KT 10SM SCT021 14/11 A2989 RMK AO2 SLP120 T01440111 TSNO
PAKW 242353Z AUTO VRB03KT 10SM FEW025 SCT040 16/13 A2990 RMK AO2 SLP124 60008 T01560128 10156 20122 58002 TSNO
PAKW 242253Z AUTO 20005KT 10SM SCT029 OVC035 14/13 A2991 RMK AO2 RAE51 SLP129 P0002 T01390128 TSNO
PAKW 242237Z AUTO 21006KT 4SM -RA BR FEW008 BKN033 OVC042 12/12 A2992 RMK AO2 P0002 T01220117 TSNO
PAKW 242206Z AUTO 21004KT 8SM -RA BKN006 OVC017 12/12 A2991 RMK AO2 P0000 T01220117 TSNO
PAKW 242153Z AUTO 19004KT 8SM -RA SCT005 BKN016 OVC029 12/12 A2991 RMK AO2 SLP129 P0003 T01220117 TSNO
PAKW 242138Z AUTO VRB03KT 7SM -RA SCT006 BKN020 OVC026 13/13 A2991 RMK AO2 P0002 T01280128 TSNO
PAKW 242131Z AUTO VRB04KT 2 1/2SM -RA BR SCT006 OVC020 12/12 A2991 RMK AO2 P0002 T01220122 TSNO
PAKW 242124Z AUTO 19007KT 3SM -RA BR SCT006 OVC020 12/12 A2991 RMK AO2 P0002 T01220122 TSNO
PAKW 242053Z AUTO 21003KT 8SM -RA OVC021 13/12 A2991 RMK AO2 RAB01 SLP126 P0002 60003 T01280117 53003 TSNO
PAKW 241953Z AUTO 00000KT 10SM BKN015 BKN028 BKN060 14/12 A2989 RMK AO2 RAB13E43 SLP121 P0000 T01390122 TSNO
PAKW 241920Z AUTO 00000KT 10SM -RA BKN011 OVC019 13/12 A2990 RMK AO2 RAB13 P0000 T01280122 TSNO
PAKW 241853Z AUTO 00000KT 10SM BKN007 OVC022 13/13 A2990 RMK AO2 RAE36 CIG 005V010 SLP125 P0001 T01280128 TSNO
PAKW 241830Z AUTO 00000KT 8SM -RA BKN008 BKN012 OVC022 12/12 A2990 RMK AO2 CIG 005V010 P0001 T01220122 TSNO
PAKW 241823Z AUTO 00000KT 6SM -RA BR SCT006 BKN010 OVC020 12/12 A2990 RMK AO2 P0001 T01220122 TSNO
PAKW 241811Z AUTO VRB04KT 9SM -RA SCT006 OVC020 12/12 A2990 RMK AO2 P0000 T01220122 TSNO
PAKW 241805Z AUTO 21005KT 10SM -RA SCT007 BKN010 OVC020 12/12 A2990 RMK AO2 CIG 008V013 P0000 T01220122 TSNO
PAKW 241759Z AUTO 23006KT 6SM -RA BR FEW007 SCT011 OVC020 12/12 A2990 RMK AO2 P0000 T01220122 TSNO
PAKW 241753Z AUTO VRB05KT 2SM -RA BR SCT007 BKN013 OVC044 12/12 A2990 RMK AO2 RAE04B20 SLP123 P0004 60014 T01220122 10139 20111 53002 TSNO
PAKW 241746Z AUTO VRB04KT 1 3/4SM +RA BR SCT010 BKN015 OVC046 12/12 A2990 RMK AO2 RAE04B20 P0004 T01220122 TSNO
PAKW 241702Z AUTO 00000KT 7SM -RA FEW009 OVC023 13/12 A2989 RMK AO2 P0000 T01330122 TSNO
PAKW 241653Z AUTO VRB03KT 3SM -RA BR FEW011 BKN023 OVC027 14/13 A2988 RMK AO2 SLP119 P0003 T01390133 TSNO
PAKW 241641Z AUTO 16003KT 2 1/2SM -RA BR FEW011 BKN020 OVC030 13/12 A2989 RMK AO2 P0002 T01280122 TSNO
PAKW 241553Z AUTO 03004KT 10SM -RA BKN031 OVC038 13/13 A2988 RMK AO2 SLP119 P0006 T01330128 TSNO
PAKW 241529Z AUTO 02004KT 8SM -RA BKN032 OVC042 13/12 A2989 RMK AO2 P0005 T01280122 TSNO
PAKW 241520Z AUTO 03003KT 2 1/2SM -RA BR BKN030 OVC039 12/12 A2989 RMK AO2 P0005 T01220122 TSNO
PAKW 241511Z AUTO 04005KT 3SM -RA BR BKN028 OVC039 12/12 A2989 RMK AO2 P0004 T01220117 TSNO
PAKW 241500Z AUTO 02003KT 1 3/4SM RA BR OVC028 12/12 A2989 RMK AO2 P0002 T01220117 TSNO
PAKW 241453Z AUTO 36003KT 4SM -RA BR OVC028 12/12 A2989 RMK AO2 RAB51 SLP121 P0001 60001 T01220117 55004 TSNO
PAKW 241353Z AUTO 03007KT 10SM OVC034 12/11 A2988 RMK AO2 SLP118 T01170111 TSNO
PAKW 241253Z AUTO VRB05KT 10SM FEW009 BKN033 OVC050 12/11 A2988 RMK AO2 RAE1158 SLP119 P0000 T01170111 TSNO
PAKW 241153Z AUTO 05006KT 10SM -RA BKN036 OVC044 11/11 A2990 RMK AO2 SLP125 P0000 60011 70011 T01110111 10122 20106 58018 TSNO
PAKW 240953Z AUTO 00000KT 9SM -RA BKN033 BKN049 OVC055 11/11 A2994 RMK AO2 SLP139 P0002 T01110106 TSNO
PAKW 240853Z AUTO 00000KT 6SM -RA BR FEW048 OVC060 11/10 A2996 RMK AO2 RAB20 SLP143 P0003 60004 T01060100 401500106 58017 TSNO
PAKW 240753Z AUTO 00000KT 10SM OVC065 11/10 A2997 RMK AO2 RAB0654E43 SLP149 P0001 T01060100 TSNO
PAKW 240653Z AUTO 00000KT 10SM BKN045 OVC050 12/09 A2999 RMK AO2 SLP154 T01170089 TSNO
PAKW 240553Z AUTO 00000KT 10SM OVC043 12/08 A3000 RMK AO2 SLP160 T01220078 10150 20122 56015 TSNO
PAKW 240453Z AUTO 00000KT 10SM OVC043 13/08 A3002 RMK AO2 SLP164 T01280078 TSNO
PAKW 240353Z AUTO 00000KT 10SM OVC044 13/08 A3003 RMK AO2 SLP169 T01330078 TSNO
PAKW 240253Z AUTO 21004KT 10SM BKN040 OVC055 13/07 A3005 RMK AO2 SLP174 T01330072 56012 TSNO
PAKW 240153Z AUTO 21003KT 10SM BKN036 OVC047 13/07 A3006 RMK AO2 SLP177 T01330072 TSNO
PAKW 240053Z AUTO 24004KT 10SM OVC043 14/09 A3007 RMK AO2 SLP181 T01440089 TSNO
PAKW 232353Z AUTO 00000KT 10SM OVC037 14/08 A3008 RMK AO2 SLP186 T01390083 10150 20128 56007 TSNO
PAKW 232253Z AUTO 22006KT 10SM OVC032 13/07 A3009 RMK AO2 SLP188 T01330072 TSNO
PAKW 232153Z AUTO 19004KT 10SM OVC032 14/09 A3009 RMK AO2 SLP189 T01440089 TSNO
PAKW 232053Z AUTO 22007KT 10SM SCT037 OVC050 13/08 A3010 RMK AO2 SLP193 T01330078 58005 TSNO
PAKW 231953Z AUTO VRB04KT 10SM SCT042 OVC050 14/07 A3011 RMK AO2 SLP195 T01390072 TSNO
PAKW 231853Z AUTO 21004KT 10SM BKN036 OVC048 14/08 A3011 RMK AO2 SLP196 T01390078 TSNO